Terminal Aerodrome Forecast
Issued by NWS

Home | Current Version | Previous Version | Text Only | Print | Product List | Glossary On
Versions: 1 2 3 4 5 6 7 8 9 10 11 12 13 14 15
000
FTUS45 KABQ 251125
TAFTCC
TAF
KTCC 251125Z 2512/2612 22007KT P6SM SCT150
     FM251800 24011G18KT P6SM SCT120
     FM252200 25015G24KT P6SM BKN120
     FM260200 26010KT P6SM BKN150
     FM260500 30010KT P6SM FEW150=

USA.gov is the U.S. government's official web portal to all federal, state and local government web resources and services.